createdAt,value
2022-11-10T00:00:52.406Z,9.55
2022-11-10T00:01:52.446Z,9.58
2022-11-10T00:02:52.396Z,9.62
2022-11-10T00:03:52.457Z,9.63
2022-11-10T00:04:52.382Z,9.64
2022-11-10T00:05:52.356Z,9.64
2022-11-10T00:06:52.389Z,9.64
2022-11-10T00:07:52.381Z,9.63
2022-11-10T00:08:52.344Z,9.62
2022-11-10T00:09:52.408Z,9.61
2022-11-10T00:10:52.448Z,9.60
2022-11-10T00:11:52.287Z,9.60
2022-11-10T00:12:52.291Z,9.60
2022-11-10T00:13:52.252Z,9.61
2022-11-10T00:14:52.236Z,9.62
2022-11-10T00:15:52.234Z,9.62
2022-11-10T00:16:52.251Z,9.60
2022-11-10T00:17:52.278Z,9.59
2022-11-10T00:18:52.254Z,9.58
2022-11-10T00:19:52.170Z,9.55
2022-11-10T00:20:52.165Z,9.52
2022-11-10T00:21:52.137Z,9.47
2022-11-10T00:22:52.133Z,9.44
2022-11-10T00:23:52.108Z,9.40
2022-11-10T00:24:52.137Z,9.37
2022-11-10T00:25:52.177Z,9.34
2022-11-10T00:26:52.161Z,9.31
2022-11-10T00:27:52.251Z,9.27
2022-11-10T00:28:52.171Z,9.24
2022-11-10T00:29:52.023Z,9.21
2022-11-10T00:30:52.019Z,9.21
2022-11-10T00:31:52.001Z,9.21
2022-11-10T00:32:51.999Z,9.21
2022-11-10T00:33:52.001Z,9.21
2022-11-10T00:34:51.983Z,9.21
2022-11-10T00:35:51.944Z,9.21
2022-11-10T00:36:51.947Z,9.20
2022-11-10T00:37:51.976Z,9.20
2022-11-10T00:38:51.919Z,9.23
2022-11-10T00:39:51.908Z,9.26
2022-11-10T00:40:51.894Z,9.31
2022-11-10T00:41:51.974Z,9.39
2022-11-10T00:42:51.913Z,9.46
2022-11-10T00:43:51.901Z,9.51
2022-11-10T00:44:51.903Z,9.55
2022-11-10T00:45:51.841Z,9.59
2022-11-10T00:46:51.804Z,9.62
2022-11-10T00:47:51.832Z,9.65
2022-11-10T00:48:51.832Z,9.68
2022-11-10T00:49:51.781Z,9.72
2022-11-10T00:50:51.788Z,9.76
2022-11-10T00:51:51.753Z,9.81
2022-11-10T00:52:51.718Z,9.88
2022-11-10T00:53:51.736Z,9.94
2022-11-10T00:54:51.751Z,9.97
2022-11-10T00:55:51.719Z,9.99
2022-11-10T00:56:51.697Z,9.98
2022-11-10T00:57:51.721Z,9.97
2022-11-10T00:58:51.662Z,9.95
2022-11-10T00:59:51.706Z,9.94
2022-11-10T01:00:51.764Z,9.93
2022-11-10T01:01:51.651Z,9.93
2022-11-10T01:02:51.604Z,9.95
2022-11-10T01:03:51.598Z,9.97
2022-11-10T01:04:51.555Z,9.98
2022-11-10T01:05:51.577Z,9.97
2022-11-10T01:06:51.608Z,9.96
2022-11-10T01:07:51.541Z,9.94
2022-11-10T01:08:51.626Z,9.93
2022-11-10T01:09:51.600Z,9.91
2022-11-10T01:10:51.554Z,9.89
2022-11-10T01:11:51.576Z,9.87
2022-11-10T01:12:51.568Z,9.86
2022-11-10T01:13:51.468Z,9.85
2022-11-10T01:14:51.452Z,9.84
2022-11-10T01:15:51.431Z,9.84
2022-11-10T01:16:51.478Z,9.83
2022-11-10T01:17:51.564Z,9.82
2022-11-10T01:18:51.387Z,9.82
2022-11-10T01:19:51.383Z,9.81
2022-11-10T01:20:51.380Z,9.79
2022-11-10T01:21:51.405Z,9.79
2022-11-10T01:22:51.401Z,9.77
2022-11-10T01:23:51.390Z,9.76
2022-11-10T01:24:51.446Z,9.74
2022-11-10T01:25:51.293Z,9.72
2022-11-10T01:26:51.322Z,9.69
2022-11-10T01:27:51.292Z,9.68
2022-11-10T01:28:51.253Z,9.67
2022-11-10T01:29:51.302Z,9.66
2022-11-10T01:30:51.227Z,9.66
2022-11-10T01:31:51.208Z,9.67
2022-11-10T01:32:51.328Z,9.68
2022-11-10T01:33:51.215Z,9.69
2022-11-10T01:34:51.215Z,9.71
2022-11-10T01:35:51.187Z,9.73
2022-11-10T01:36:51.185Z,9.74
2022-11-10T01:37:51.150Z,9.74
2022-11-10T01:38:51.138Z,9.75
2022-11-10T01:39:51.115Z,9.78
2022-11-10T01:40:51.112Z,9.80
2022-11-10T01:41:51.098Z,9.83
2022-11-10T01:42:51.093Z,9.84
2022-11-10T01:43:51.061Z,9.85
2022-11-10T01:44:51.099Z,9.87
2022-11-10T01:45:51.079Z,9.94
2022-11-10T01:46:51.090Z,10.01
2022-11-10T01:47:51.060Z,10.06
2022-11-10T01:48:50.986Z,10.09
2022-11-10T01:49:50.979Z,10.10
2022-11-10T01:50:51.026Z,10.11
2022-11-10T01:51:50.962Z,10.11
2022-11-10T01:52:50.962Z,10.10
2022-11-10T01:53:51.038Z,10.08
2022-11-10T01:54:50.956Z,10.07
2022-11-10T01:55:50.960Z,10.06
2022-11-10T01:56:50.883Z,10.04
2022-11-10T01:57:50.907Z,10.04
2022-11-10T01:58:50.867Z,10.05
2022-11-10T01:59:50.951Z,10.05
2022-11-10T02:00:50.857Z,10.06
2022-11-10T02:01:50.881Z,10.07
2022-11-10T02:02:50.874Z,10.07
2022-11-10T02:03:50.807Z,10.07
2022-11-10T02:04:50.786Z,10.05
2022-11-10T02:05:50.778Z,10.04
2022-11-10T02:06:50.787Z,10.03
2022-11-10T02:07:50.775Z,10.03
2022-11-10T02:08:50.786Z,10.04
2022-11-10T02:09:50.729Z,10.05
2022-11-10T02:10:50.777Z,10.06
2022-11-10T02:11:50.725Z,10.05
2022-11-10T02:12:50.666Z,10.05
2022-11-10T02:13:50.696Z,10.04
2022-11-10T02:14:50.649Z,10.03
2022-11-10T02:15:50.676Z,10.02
2022-11-10T02:16:50.667Z,10.02
2022-11-10T02:17:50.613Z,10.02
2022-11-10T02:18:50.655Z,10.03
2022-11-10T02:19:50.580Z,10.06
2022-11-10T02:20:50.605Z,10.09
2022-11-10T02:21:50.567Z,10.12
2022-11-10T02:22:50.660Z,10.15
2022-11-10T02:23:50.658Z,10.17
2022-11-10T02:24:50.556Z,10.18
2022-11-10T02:25:50.536Z,10.18
2022-11-10T02:26:50.618Z,10.16
2022-11-10T02:27:50.524Z,10.14
2022-11-10T02:28:50.450Z,10.13
2022-11-10T02:29:50.490Z,10.12
2022-11-10T02:30:50.478Z,10.11
2022-11-10T02:31:50.486Z,10.10
2022-11-10T02:32:50.399Z,10.09
2022-11-10T02:33:50.392Z,10.08
2022-11-10T02:34:50.445Z,10.08
2022-11-10T02:35:50.460Z,10.08
2022-11-10T02:36:50.419Z,10.08
2022-11-10T02:37:50.393Z,10.07
2022-11-10T02:38:50.344Z,10.07
2022-11-10T02:39:50.443Z,10.08
2022-11-10T02:40:50.361Z,10.08
2022-11-10T02:41:50.300Z,10.08
2022-11-10T02:42:50.282Z,10.10
2022-11-10T02:43:50.310Z,10.13
2022-11-10T02:44:50.303Z,10.15
2022-11-10T02:45:50.241Z,10.17
2022-11-10T02:46:50.231Z,10.19
2022-11-10T02:47:50.238Z,10.21
2022-11-10T02:48:50.189Z,10.22
2022-11-10T02:49:50.218Z,10.25
2022-11-10T02:50:50.211Z,10.27
2022-11-10T02:51:50.198Z,10.28
2022-11-10T02:52:50.171Z,10.28
2022-11-10T02:53:50.158Z,10.28
2022-11-10T02:54:50.186Z,10.27
2022-11-10T02:55:50.179Z,10.28
2022-11-10T02:56:50.111Z,10.29
2022-11-10T02:57:50.129Z,10.30
2022-11-10T02:58:50.068Z,10.32
2022-11-10T02:59:50.062Z,10.34
2022-11-10T03:00:50.091Z,10.34
2022-11-10T03:01:50.065Z,10.35
2022-11-10T03:02:50.058Z,10.37
2022-11-10T03:03:50.026Z,10.39
2022-11-10T03:04:50.004Z,10.40
2022-11-10T03:05:49.985Z,10.41
2022-11-10T03:06:50.086Z,10.41
2022-11-10T03:07:49.960Z,10.40
2022-11-10T03:08:49.966Z,10.40
2022-11-10T03:09:49.953Z,10.40
2022-11-10T03:10:49.976Z,10.40
2022-11-10T03:11:49.939Z,10.40
2022-11-10T03:12:49.970Z,10.39
2022-11-10T03:14:01.570Z,10.38
2022-11-10T03:14:49.916Z,10.37
2022-11-10T03:15:49.887Z,10.37
2022-11-10T03:16:49.846Z,10.38
2022-11-10T03:17:49.859Z,10.40
2022-11-10T03:18:49.787Z,10.41
2022-11-10T03:19:49.841Z,10.42
2022-11-10T03:20:49.790Z,10.42
2022-11-10T03:21:49.764Z,10.42
2022-11-10T03:22:49.762Z,10.43
2022-11-10T03:23:49.762Z,10.44
2022-11-10T03:24:49.740Z,10.46
2022-11-10T03:25:49.739Z,10.46
2022-11-10T03:26:49.727Z,10.47
2022-11-10T03:27:49.681Z,10.47
2022-11-10T03:28:49.690Z,10.49
2022-11-10T03:29:49.658Z,10.53
2022-11-10T03:30:49.682Z,10.56
2022-11-10T03:31:49.634Z,10.57
2022-11-10T03:32:49.616Z,10.56
2022-11-10T03:33:49.644Z,10.54
2022-11-10T03:34:49.662Z,10.51
2022-11-10T03:35:49.671Z,10.47
2022-11-10T03:36:49.600Z,10.43
2022-11-10T03:37:49.549Z,10.39
2022-11-10T03:38:49.539Z,10.35
2022-11-10T03:39:49.802Z,10.33
2022-11-10T03:41:18.760Z,10.30
2022-11-10T03:41:49.525Z,10.26
2022-11-10T03:42:49.489Z,10.23
2022-11-10T03:43:49.544Z,10.20
2022-11-10T03:44:49.486Z,10.16
2022-11-10T03:45:49.476Z,10.12
2022-11-10T03:46:51.750Z,10.09
2022-11-10T03:47:49.433Z,10.07
2022-11-10T03:48:53.525Z,10.03
2022-11-10T03:49:49.429Z,9.99
2022-11-10T03:50:49.392Z,9.95
2022-11-10T03:51:49.410Z,9.92
2022-11-10T03:52:49.355Z,9.88
2022-11-10T03:53:49.386Z,9.82
2022-11-10T03:54:49.351Z,9.76
2022-11-10T03:55:49.325Z,9.69
2022-11-10T03:56:49.318Z,9.63
2022-11-10T03:57:49.296Z,9.57
2022-11-10T03:58:49.273Z,9.52
2022-11-10T03:59:49.265Z,9.48
2022-11-10T04:00:49.248Z,9.45
2022-11-10T04:01:49.337Z,9.42
2022-11-10T04:02:49.256Z,9.39
2022-11-10T04:03:51.685Z,9.36
2022-11-10T04:04:49.214Z,9.35
2022-11-10T04:05:49.209Z,9.32
2022-11-10T04:06:49.211Z,9.30
2022-11-10T04:07:49.157Z,9.27
2022-11-10T04:08:49.158Z,9.23
2022-11-10T04:09:49.154Z,9.20
2022-11-10T04:10:49.105Z,9.16
2022-11-10T04:11:49.128Z,9.12
2022-11-10T04:12:49.108Z,9.09
2022-11-10T04:13:49.090Z,9.06
2022-11-10T04:14:49.073Z,9.05
2022-11-10T04:15:49.043Z,9.06
2022-11-10T04:16:49.066Z,9.06
2022-11-10T04:17:49.065Z,9.03
2022-11-10T04:18:49.044Z,8.99
2022-11-10T04:19:49.009Z,8.94
2022-11-10T04:20:48.986Z,8.88
2022-11-10T04:21:48.990Z,8.82
2022-11-10T04:22:48.981Z,8.76
2022-11-10T04:23:48.966Z,8.70
2022-11-10T04:24:48.911Z,8.66
2022-11-10T04:25:48.960Z,8.63
2022-11-10T04:26:48.934Z,8.62
2022-11-10T04:27:48.884Z,8.61
2022-11-10T04:28:48.871Z,8.59
2022-11-10T04:29:48.881Z,8.57
2022-11-10T04:30:48.848Z,8.57
2022-11-10T04:31:48.872Z,8.58
2022-11-10T04:32:48.863Z,8.58
2022-11-10T04:33:48.828Z,8.58
2022-11-10T04:34:48.824Z,8.60
2022-11-10T04:35:48.791Z,8.63
2022-11-10T04:36:48.801Z,8.65
2022-11-10T04:37:48.786Z,8.67
2022-11-10T04:38:48.787Z,8.69
2022-11-10T04:39:48.730Z,8.70
2022-11-10T04:40:48.706Z,8.70
2022-11-10T04:41:48.704Z,8.71
2022-11-10T04:42:48.739Z,8.72
2022-11-10T04:43:48.678Z,8.72
2022-11-10T04:44:48.640Z,8.72
2022-11-10T04:45:48.663Z,8.72
2022-11-10T04:46:48.665Z,8.71
2022-11-10T04:47:48.653Z,8.71
2022-11-10T04:48:48.631Z,8.71
2022-11-10T04:49:48.616Z,8.71
2022-11-10T04:50:48.596Z,8.71
2022-11-10T04:51:48.604Z,8.71
2022-11-10T04:52:48.629Z,8.72
2022-11-10T04:53:48.576Z,8.72
2022-11-10T04:54:48.575Z,8.71
2022-11-10T04:55:48.535Z,8.67
2022-11-10T04:56:48.510Z,8.62
2022-11-10T04:57:48.513Z,8.55
2022-11-10T04:58:48.484Z,8.47
2022-11-10T04:59:48.460Z,8.41
2022-11-10T05:00:48.538Z,8.35
2022-11-10T05:01:48.451Z,8.30
2022-11-10T05:02:48.465Z,8.25
2022-11-10T05:03:48.415Z,8.20
2022-11-10T05:04:48.404Z,8.15
2022-11-10T05:05:48.378Z,8.11
2022-11-10T05:06:48.410Z,8.07
2022-11-10T05:07:48.339Z,8.04
2022-11-10T05:08:48.348Z,8.00
2022-11-10T05:09:48.357Z,7.96
2022-11-10T05:10:48.332Z,7.93
2022-11-10T05:11:48.332Z,7.92
2022-11-10T05:12:48.328Z,7.92
2022-11-10T05:15:08.490Z,9.05
2022-11-10T05:16:09.460Z,8.59
2022-11-10T05:17:09.450Z,8.27
2022-11-10T05:18:09.431Z,8.09
2022-11-10T05:19:09.409Z,8.00
2022-11-10T05:20:09.391Z,7.96
2022-11-10T05:21:09.401Z,7.94
2022-11-10T05:22:09.376Z,7.92
2022-11-10T05:23:09.339Z,7.91
2022-11-10T05:24:09.344Z,7.90
2022-11-10T05:25:09.316Z,7.88
2022-11-10T05:26:09.313Z,7.85
2022-11-10T05:27:09.304Z,7.83
2022-11-10T05:28:09.310Z,7.79
2022-11-10T05:29:09.274Z,7.77
2022-11-10T05:30:09.285Z,7.78
2022-11-10T05:31:09.274Z,7.79
2022-11-10T05:32:09.227Z,7.79
2022-11-10T05:33:09.252Z,7.78
2022-11-10T05:34:09.215Z,7.77
2022-11-10T05:35:09.182Z,7.74
2022-11-10T05:36:09.196Z,7.72
2022-11-10T05:37:09.161Z,7.69
2022-11-10T05:38:09.583Z,7.66
2022-11-10T05:39:09.157Z,7.64
2022-11-10T05:40:09.115Z,7.64
2022-11-10T05:41:09.112Z,7.64
2022-11-10T05:42:09.100Z,7.63
2022-11-10T05:43:09.085Z,7.62
2022-11-10T05:44:09.102Z,7.59
2022-11-10T05:45:09.047Z,7.56
2022-11-10T05:46:09.033Z,7.52
2022-11-10T05:47:09.025Z,7.47
2022-11-10T05:48:09.009Z,7.42
2022-11-10T05:49:08.999Z,7.37
2022-11-10T05:50:09.019Z,7.33
2022-11-10T05:51:08.997Z,7.29
2022-11-10T05:52:08.952Z,7.24
2022-11-10T05:53:08.957Z,7.19
2022-11-10T05:54:08.932Z,7.13
2022-11-10T05:55:08.952Z,7.08
2022-11-10T05:56:08.910Z,7.03
2022-11-10T05:57:08.927Z,6.98
2022-11-10T05:58:08.891Z,6.94
2022-11-10T05:59:08.851Z,6.91
2022-11-10T06:00:08.884Z,6.91
2022-11-10T06:01:08.872Z,6.92
2022-11-10T06:02:08.847Z,6.96
2022-11-10T06:03:08.861Z,6.98
2022-11-10T06:04:08.813Z,7.02
2022-11-10T06:05:08.919Z,7.06
2022-11-10T06:06:08.793Z,7.08
2022-11-10T06:07:08.770Z,7.09
2022-11-10T06:08:08.755Z,7.12
2022-11-10T06:09:08.751Z,7.13
2022-11-10T06:10:08.717Z,7.13
2022-11-10T06:11:08.725Z,7.11
2022-11-10T06:12:08.690Z,7.09
2022-11-10T06:13:08.694Z,7.07
2022-11-10T06:14:08.682Z,7.03
2022-11-10T06:15:08.650Z,6.99
2022-11-10T06:16:08.664Z,6.95
2022-11-10T06:17:08.640Z,6.94
2022-11-10T06:18:08.636Z,6.95
2022-11-10T06:19:08.597Z,6.97
2022-11-10T06:20:08.587Z,6.97
2022-11-10T06:21:08.576Z,6.95
2022-11-10T06:22:08.550Z,6.92
2022-11-10T06:23:08.589Z,6.89
2022-11-10T06:24:08.544Z,6.85
2022-11-10T06:25:08.524Z,6.87
2022-11-10T06:26:08.553Z,6.95
2022-11-10T06:27:08.498Z,7.04
2022-11-10T06:28:08.526Z,7.10
2022-11-10T06:29:08.504Z,7.13
2022-11-10T06:30:08.483Z,7.12
2022-11-10T06:31:08.445Z,7.08
2022-11-10T06:32:08.460Z,7.03
2022-11-10T06:33:08.407Z,6.99
2022-11-10T06:34:08.446Z,6.96
2022-11-10T06:35:08.393Z,6.92
2022-11-10T06:36:08.367Z,6.88
2022-11-10T06:37:08.362Z,6.87
2022-11-10T06:38:08.362Z,6.86
2022-11-10T06:39:08.451Z,6.84
2022-11-10T06:40:08.311Z,6.82
2022-11-10T06:41:08.301Z,6.79
2022-11-10T06:42:08.325Z,6.77
2022-11-10T06:43:08.321Z,6.77
2022-11-10T06:44:08.293Z,6.76
2022-11-10T06:45:08.242Z,6.75
2022-11-10T06:46:08.258Z,6.75
2022-11-10T06:47:08.218Z,6.74
2022-11-10T06:48:08.233Z,6.73
2022-11-10T06:49:08.221Z,6.74
2022-11-10T06:50:08.206Z,6.77
2022-11-10T06:51:08.177Z,6.80
2022-11-10T06:52:08.234Z,6.84
2022-11-10T06:53:08.199Z,6.88
2022-11-10T06:54:08.158Z,6.91
2022-11-10T06:55:08.142Z,6.93
2022-11-10T06:56:08.133Z,6.94
2022-11-10T06:57:08.100Z,6.94
2022-11-10T06:58:08.085Z,6.93
2022-11-10T06:59:08.093Z,6.95
2022-11-10T07:00:08.057Z,6.99
2022-11-10T07:01:08.113Z,7.01
2022-11-10T07:02:08.041Z,7.00
2022-11-10T07:03:08.047Z,6.99
2022-11-10T07:04:19.828Z,6.99
2022-11-10T07:05:08.018Z,7.00
2022-11-10T07:06:08.031Z,7.03
2022-11-10T07:07:08.048Z,7.06
2022-11-10T07:08:07.974Z,7.08
2022-11-10T07:09:07.928Z,7.08
2022-11-10T07:10:07.947Z,7.08
2022-11-10T07:11:07.941Z,7.10
2022-11-10T07:12:07.891Z,7.13
2022-11-10T07:13:07.908Z,7.18
2022-11-10T07:14:07.864Z,7.22
2022-11-10T07:15:07.848Z,7.25
2022-11-10T07:16:07.867Z,7.27
2022-11-10T07:17:07.837Z,7.30
2022-11-10T07:18:07.875Z,7.33
2022-11-10T07:19:07.818Z,7.37
2022-11-10T07:20:07.835Z,7.43
2022-11-10T07:21:07.811Z,7.49
2022-11-10T07:22:11.014Z,7.57
2022-11-10T07:23:07.759Z,7.65
2022-11-10T07:24:07.744Z,7.75
2022-11-10T07:25:07.733Z,7.86
2022-11-10T07:26:07.706Z,8.03
2022-11-10T07:27:07.688Z,8.22
2022-11-10T07:28:07.707Z,8.39
2022-11-10T07:29:07.657Z,8.55
2022-11-10T07:30:07.646Z,8.69
2022-11-10T07:31:07.666Z,8.82
2022-11-10T07:32:07.681Z,8.94
2022-11-10T07:33:07.658Z,9.07
2022-11-10T07:34:07.636Z,9.18
2022-11-10T07:35:07.601Z,9.29
2022-11-10T07:36:07.606Z,9.40
2022-11-10T07:37:07.596Z,9.50
2022-11-10T07:38:07.549Z,9.58
2022-11-10T07:39:07.560Z,9.64
2022-11-10T07:40:07.554Z,9.66
2022-11-10T07:41:07.528Z,9.68
2022-11-10T07:42:07.522Z,9.69
2022-11-10T07:43:07.507Z,9.69
2022-11-10T07:44:07.520Z,9.69
2022-11-10T07:45:07.465Z,9.70
2022-11-10T07:46:07.444Z,9.71
2022-11-10T07:47:07.450Z,9.70
2022-11-10T07:48:07.427Z,9.69
2022-11-10T07:49:07.419Z,9.68
2022-11-10T07:50:07.401Z,9.67
2022-11-10T07:51:07.448Z,9.66
2022-11-10T07:52:07.366Z,9.65
2022-11-10T07:53:07.368Z,9.66
2022-11-10T07:54:07.347Z,9.67
2022-11-10T07:55:07.372Z,9.67
2022-11-10T07:56:07.342Z,9.66
2022-11-10T07:57:07.357Z,9.74
2022-11-10T07:58:07.290Z,9.94
2022-11-10T07:59:07.290Z,10.10
2022-11-10T08:00:07.275Z,10.17
2022-11-10T08:01:07.234Z,10.17
2022-11-10T08:02:07.257Z,10.21
2022-11-10T08:03:07.223Z,10.37
2022-11-10T08:04:07.191Z,10.62
2022-11-10T08:05:07.176Z,10.87
2022-11-10T08:06:07.214Z,11.12
2022-11-10T08:07:07.298Z,11.29
2022-11-10T08:08:07.139Z,11.35
2022-11-10T08:09:07.168Z,11.50
2022-11-10T08:10:07.125Z,11.75
2022-11-10T08:11:07.124Z,12.00
2022-11-10T08:12:07.103Z,12.12
2022-11-10T08:13:07.110Z,12.15
2022-11-10T08:14:07.079Z,12.16
2022-11-10T08:15:07.080Z,12.01
2022-11-10T08:16:07.043Z,11.83
2022-11-10T08:17:07.047Z,11.72
2022-11-10T08:18:07.035Z,11.62
2022-11-10T08:19:07.019Z,11.66
2022-11-10T08:20:07.007Z,11.88
2022-11-10T08:21:07.020Z,12.20
2022-11-10T08:22:07.002Z,12.51
2022-11-10T08:23:07.034Z,12.80
2022-11-10T08:24:08.482Z,12.84
2022-11-10T08:25:06.922Z,12.75
2022-11-10T08:26:06.937Z,12.84
2022-11-10T08:27:06.895Z,12.92
2022-11-10T08:28:06.894Z,13.01
2022-11-10T08:29:06.897Z,13.21
2022-11-10T08:30:06.855Z,13.46
2022-11-10T08:31:06.852Z,13.62
2022-11-10T08:32:06.816Z,13.75
2022-11-10T08:33:07.020Z,13.89
2022-11-10T08:34:06.796Z,14.05
2022-11-10T08:35:06.799Z,14.22
2022-11-10T08:36:06.773Z,14.40
2022-11-10T08:37:06.750Z,14.67
2022-11-10T08:38:09.540Z,14.85
2022-11-10T08:39:06.729Z,14.91
2022-11-10T08:40:06.719Z,14.88
2022-11-10T08:41:06.711Z,14.74
2022-11-10T08:42:06.686Z,14.47
2022-11-10T08:43:06.682Z,14.13
2022-11-10T08:44:10.687Z,13.84
2022-11-10T08:45:06.647Z,13.63
2022-11-10T08:46:06.651Z,13.53
2022-11-10T08:47:06.628Z,13.52
2022-11-10T08:48:06.667Z,13.56
2022-11-10T08:49:06.598Z,13.70
2022-11-10T08:50:06.585Z,13.83
2022-11-10T08:51:06.570Z,14.02
2022-11-10T08:52:06.588Z,14.26
2022-11-10T08:53:06.556Z,14.40
2022-11-10T08:54:06.550Z,14.47
2022-11-10T08:55:06.543Z,14.62
2022-11-10T08:56:06.514Z,14.76
2022-11-10T08:57:06.488Z,14.88
2022-11-10T08:58:06.493Z,14.95
2022-11-10T08:59:06.479Z,14.91
2022-11-10T09:00:06.501Z,14.86
2022-11-10T09:01:06.468Z,14.86
2022-11-10T09:02:06.435Z,14.83
2022-11-10T09:03:06.439Z,14.83
2022-11-10T09:04:06.492Z,14.89
2022-11-10T09:05:06.453Z,14.86
2022-11-10T09:06:06.371Z,14.83
2022-11-10T09:07:06.440Z,14.94
2022-11-10T09:08:06.366Z,15.05
2022-11-10T09:09:06.337Z,15.17
2022-11-10T09:10:07.611Z,15.33
2022-11-10T09:11:06.333Z,15.42
2022-11-10T09:12:06.285Z,15.51
2022-11-10T09:13:06.325Z,15.47
2022-11-10T09:14:06.295Z,15.38
2022-11-10T09:15:06.301Z,15.38
2022-11-10T09:16:06.231Z,15.40
2022-11-10T09:17:06.233Z,15.44
2022-11-10T09:18:06.278Z,15.38
2022-11-10T09:19:06.230Z,15.19
2022-11-10T09:20:06.271Z,15.01
2022-11-10T09:21:06.209Z,14.83
2022-11-10T09:22:06.177Z,14.77
2022-11-10T09:23:06.187Z,14.88
2022-11-10T09:24:06.160Z,15.03
2022-11-10T09:25:06.166Z,15.21
2022-11-10T09:26:06.124Z,15.32
2022-11-10T09:27:06.146Z,15.14
2022-11-10T09:28:06.110Z,14.93
2022-11-10T09:29:06.074Z,14.89
2022-11-10T09:30:06.074Z,14.96
2022-11-10T09:31:06.038Z,14.96
2022-11-10T09:32:06.020Z,14.85
2022-11-10T09:33:06.020Z,14.73
2022-11-10T09:34:06.111Z,14.56
2022-11-10T09:35:06.005Z,14.40
2022-11-10T09:36:06.003Z,14.34
2022-11-10T09:37:06.042Z,14.32
2022-11-10T09:38:05.959Z,14.35
2022-11-10T09:39:05.916Z,14.42
2022-11-10T09:40:09.238Z,14.55
2022-11-10T09:41:05.947Z,14.72
2022-11-10T09:42:05.884Z,14.87
2022-11-10T09:43:05.883Z,14.91
2022-11-10T09:44:05.847Z,14.81
2022-11-10T09:45:05.838Z,14.71
2022-11-10T09:46:05.840Z,14.80
2022-11-10T09:47:05.820Z,15.05
2022-11-10T09:48:05.812Z,15.34
2022-11-10T09:49:05.835Z,15.60
2022-11-10T09:50:05.792Z,15.76
2022-11-10T09:51:05.773Z,15.77
2022-11-10T09:52:05.749Z,15.68
2022-11-10T09:53:05.744Z,15.36
2022-11-10T09:54:05.725Z,14.99
2022-11-10T09:55:05.712Z,14.75
2022-11-10T09:56:05.706Z,14.63
2022-11-10T09:57:05.733Z,14.70
2022-11-10T09:58:05.704Z,15.02
2022-11-10T09:59:05.672Z,15.40
2022-11-10T10:00:05.704Z,15.75
2022-11-10T10:01:05.669Z,16.07
2022-11-10T10:02:05.641Z,16.26
2022-11-10T10:03:05.632Z,16.30
2022-11-10T10:04:05.646Z,16.35
2022-11-10T10:05:05.599Z,16.35
2022-11-10T10:06:05.618Z,16.36
2022-11-10T10:07:11.127Z,16.37
2022-11-10T10:08:05.556Z,16.30
2022-11-10T10:09:05.532Z,16.24
2022-11-10T10:10:05.569Z,16.35
2022-11-10T10:11:05.493Z,16.55
2022-11-10T10:12:05.514Z,16.70
2022-11-10T10:13:05.477Z,16.78
2022-11-10T10:14:05.471Z,16.86
2022-11-10T10:15:05.486Z,16.88
2022-11-10T10:16:05.432Z,16.82
2022-11-10T10:17:05.437Z,16.73
2022-11-10T10:18:05.445Z,16.65
2022-11-10T10:19:05.393Z,16.57
2022-11-10T10:20:05.360Z,16.37
2022-11-10T10:21:05.376Z,16.03
2022-11-10T10:22:05.365Z,15.66
2022-11-10T10:23:05.381Z,15.47
2022-11-10T10:24:11.329Z,15.43
2022-11-10T10:25:05.379Z,15.34
2022-11-10T10:26:05.310Z,15.07
2022-11-10T10:27:05.292Z,14.83
2022-11-10T10:28:09.881Z,14.70
2022-11-10T10:29:05.257Z,14.61
2022-11-10T10:30:05.244Z,14.59
2022-11-10T10:31:05.247Z,14.60
2022-11-10T10:32:05.443Z,14.52
2022-11-10T10:33:05.202Z,14.31
2022-11-10T10:34:05.218Z,14.07
2022-11-10T10:35:05.225Z,13.89
2022-11-10T10:36:05.157Z,13.77
2022-11-10T10:37:05.181Z,13.67
2022-11-10T10:38:05.156Z,13.64
2022-11-10T10:39:05.154Z,13.69
2022-11-10T10:40:05.093Z,13.79
2022-11-10T10:41:05.095Z,13.94
2022-11-10T10:42:05.083Z,14.09
2022-11-10T10:43:05.057Z,14.09
2022-11-10T10:44:05.059Z,14.09
2022-11-10T10:45:05.139Z,14.13
2022-11-10T10:46:05.135Z,14.14
2022-11-10T10:47:05.052Z,14.20
2022-11-10T10:48:04.995Z,14.32
2022-11-10T10:49:30.766Z,14.44
2022-11-10T10:50:04.996Z,14.51
2022-11-10T10:51:04.948Z,14.54
2022-11-10T10:52:04.941Z,14.53
2022-11-10T10:53:04.943Z,14.47
2022-11-10T10:54:04.937Z,14.45
2022-11-10T10:55:04.935Z,14.43
2022-11-10T10:56:04.894Z,14.41
2022-11-10T10:57:04.891Z,14.38
2022-11-10T10:58:04.875Z,14.34
2022-11-10T10:59:04.871Z,14.26
2022-11-10T11:00:04.873Z,14.11
2022-11-10T11:01:04.929Z,13.93
2022-11-10T11:02:04.829Z,13.82
2022-11-10T11:03:05.058Z,13.73
2022-11-10T11:04:04.773Z,13.63
2022-11-10T11:05:04.771Z,13.52
2022-11-10T11:06:04.770Z,13.41
2022-11-10T11:07:04.864Z,13.32
2022-11-10T11:08:04.722Z,13.25
2022-11-10T11:09:04.734Z,13.19
2022-11-10T11:10:04.724Z,13.16
2022-11-10T11:11:04.685Z,13.15
2022-11-10T11:12:04.687Z,13.18
2022-11-10T11:13:04.683Z,13.23
2022-11-10T11:14:04.658Z,13.28
2022-11-10T11:15:04.650Z,13.33
2022-11-10T11:16:04.606Z,13.41
2022-11-10T11:17:04.681Z,13.53
2022-11-10T11:18:04.591Z,13.65
2022-11-10T11:19:04.570Z,13.75
2022-11-10T11:20:04.601Z,13.81
2022-11-10T11:21:04.558Z,13.81
2022-11-10T11:22:04.548Z,13.79
2022-11-10T11:23:04.536Z,13.78
2022-11-10T11:24:04.535Z,13.80
2022-11-10T11:25:04.478Z,13.83
2022-11-10T11:26:04.487Z,13.87
2022-11-10T11:27:04.525Z,13.89
2022-11-10T11:28:04.491Z,13.93
2022-11-10T11:29:04.431Z,13.93
2022-11-10T11:30:04.524Z,13.91
2022-11-10T11:31:04.424Z,13.93
2022-11-10T11:32:04.389Z,13.93
2022-11-10T11:33:04.385Z,13.98
2022-11-10T11:34:04.381Z,14.00
2022-11-10T11:35:04.359Z,13.93
2022-11-10T11:36:04.351Z,13.92
2022-11-10T11:37:09.820Z,14.02
2022-11-10T11:38:04.327Z,14.09
2022-11-10T11:39:04.333Z,14.16
2022-11-10T11:40:04.316Z,14.21
2022-11-10T11:41:04.261Z,14.16
2022-11-10T11:42:04.272Z,14.10
2022-11-10T11:43:04.238Z,14.12
2022-11-10T11:44:04.272Z,14.13
2022-11-10T11:45:04.238Z,14.08
2022-11-10T11:46:04.240Z,14.02
2022-11-10T11:47:04.199Z,14.02
2022-11-10T11:48:04.197Z,14.04
2022-11-10T11:49:04.194Z,14.03
2022-11-10T11:50:04.180Z,14.16
2022-11-10T11:51:04.157Z,14.37
2022-11-10T11:52:04.155Z,14.47
2022-11-10T11:53:04.139Z,14.62
2022-11-10T11:54:04.121Z,14.86
2022-11-10T11:55:04.084Z,15.15
2022-11-10T11:56:04.082Z,15.26
2022-11-10T11:57:04.095Z,15.40
2022-11-10T11:58:04.045Z,15.69
2022-11-10T11:59:04.024Z,16.02
2022-11-10T12:00:04.007Z,16.36
2022-11-10T12:01:03.994Z,16.67
2022-11-10T12:02:04.113Z,16.94
2022-11-10T12:03:04.118Z,17.17
2022-11-10T12:04:03.951Z,17.47
2022-11-10T12:05:03.935Z,17.69
2022-11-10T12:06:03.971Z,17.73
2022-11-10T12:07:03.954Z,17.69
2022-11-10T12:08:03.910Z,17.60
2022-11-10T12:09:03.904Z,17.68
2022-11-10T12:10:03.913Z,17.74
2022-11-10T12:11:03.875Z,17.60
2022-11-10T12:12:03.849Z,17.33
2022-11-10T12:13:03.861Z,16.92
2022-11-10T12:14:03.825Z,16.44
2022-11-10T12:15:03.829Z,15.93
2022-11-10T12:16:03.811Z,15.48
2022-11-10T12:17:03.785Z,15.15
2022-11-10T12:18:03.808Z,14.89
2022-11-10T12:19:11.353Z,14.68
2022-11-10T12:20:03.760Z,14.52
2022-11-10T12:21:03.718Z,14.41
2022-11-10T12:22:03.749Z,14.32
2022-11-10T12:23:10.239Z,14.21
2022-11-10T12:24:08.817Z,14.12
2022-11-10T12:26:15.363Z,14.77
2022-11-10T12:27:16.345Z,14.32
2022-11-10T12:28:16.346Z,14.02
2022-11-10T12:29:16.327Z,13.84
2022-11-10T12:30:16.300Z,13.75
2022-11-10T12:31:16.294Z,13.70
2022-11-10T12:32:16.270Z,13.67
2022-11-10T12:33:16.271Z,13.67
2022-11-10T12:34:16.250Z,13.69
2022-11-10T12:35:16.280Z,13.72
2022-11-10T12:36:16.229Z,13.74
2022-11-10T12:37:16.231Z,13.73
2022-11-10T12:38:16.203Z,13.72
2022-11-10T12:39:16.180Z,13.69
2022-11-10T12:40:16.151Z,13.66
2022-11-10T12:41:16.147Z,13.63
2022-11-10T12:42:16.120Z,13.62
2022-11-10T12:43:16.115Z,13.60
2022-11-10T12:44:16.854Z,13.58
2022-11-10T12:45:16.102Z,13.56
2022-11-10T12:46:16.079Z,13.55
2022-11-10T12:47:16.069Z,13.55
2022-11-10T12:48:16.032Z,13.55
2022-11-10T12:49:16.023Z,13.55
2022-11-10T12:50:16.019Z,13.56
2022-11-10T12:51:16.056Z,13.57
2022-11-10T12:52:15.999Z,13.59
2022-11-10T12:53:15.975Z,13.60
2022-11-10T12:54:17.031Z,13.58
2022-11-10T12:55:15.955Z,13.56
2022-11-10T12:56:15.958Z,13.54
2022-11-10T12:57:15.920Z,13.54
2022-11-10T12:58:15.937Z,13.54
2022-11-10T12:59:15.890Z,13.56
2022-11-10T13:00:20.177Z,13.57
2022-11-10T13:01:15.928Z,13.59
2022-11-10T13:02:15.879Z,13.60
2022-11-10T13:03:15.836Z,13.59
2022-11-10T13:04:15.856Z,13.61
2022-11-10T13:05:15.806Z,13.65
2022-11-10T13:06:15.783Z,13.69
2022-11-10T13:07:15.842Z,13.74